createdAt,value
2022-11-05T00:00:37.048Z,7.25
2022-11-05T00:05:54.371Z,6.90
2022-11-05T00:10:53.101Z,7.32
2022-11-05T00:16:10.595Z,7.07
2022-11-05T00:21:29.711Z,7.25
2022-11-05T00:26:28.364Z,7.57
2022-11-05T00:31:27.448Z,8.27
2022-11-05T00:36:26.132Z,8.48
2022-11-05T00:41:24.840Z,8.75
2022-11-05T00:46:23.564Z,8.85
2022-11-05T00:51:22.545Z,9.10
2022-11-05T00:56:21.318Z,10.05
2022-11-05T01:01:20.043Z,9.73
2022-11-05T01:06:19.343Z,9.45
2022-11-05T01:11:34.616Z,9.35
2022-11-05T01:16:33.839Z,10.70
2022-11-05T01:21:33.038Z,10.45
2022-11-05T01:26:31.841Z,9.48
2022-11-05T01:31:30.493Z,10.02
2022-11-05T01:36:29.235Z,9.57
2022-11-05T01:41:27.969Z,10.35
2022-11-05T01:46:41.223Z,9.82
2022-11-05T01:51:41.310Z,10.02
2022-11-05T01:56:48.654Z,10.43
2022-11-05T02:01:47.653Z,9.45
2022-11-05T02:06:46.757Z,9.07
2022-11-05T02:11:46.846Z,7.85
2022-11-05T02:17:38.159Z,5.35
2022-11-05T02:22:48.941Z,6.47
2022-11-05T02:28:09.316Z,7.00
2022-11-05T02:33:18.036Z,6.28
2022-11-05T02:38:52.270Z,7.78
2022-11-05T02:44:09.299Z,7.65
2022-11-05T02:49:17.279Z,6.90
2022-11-05T02:54:38.920Z,7.13
2022-11-05T02:59:37.605Z,7.82
2022-11-05T03:04:36.507Z,6.75
2022-11-05T03:09:56.163Z,7.95
2022-11-05T03:15:07.017Z,7.18
2022-11-05T03:20:21.648Z,6.55
2022-11-05T03:25:24.206Z,6.93
2022-11-05T03:30:25.124Z,7.05
2022-11-05T03:35:28.026Z,6.82
2022-11-05T03:40:29.622Z,6.03
2022-11-05T03:45:36.227Z,6.40
2022-11-05T03:50:42.236Z,6.78
2022-11-05T03:56:03.492Z,7.75
2022-11-05T04:01:03.547Z,9.70
2022-11-05T04:06:21.921Z,9.20
2022-11-05T04:11:39.432Z,10.98
2022-11-05T04:16:56.813Z,12.02
2022-11-05T04:22:14.251Z,11.00
2022-11-05T04:27:12.989Z,12.18
2022-11-05T04:32:11.899Z,11.45
2022-11-05T04:37:10.648Z,11.82
2022-11-05T04:42:09.401Z,12.57
2022-11-05T04:47:08.239Z,11.80
2022-11-05T04:52:06.971Z,11.45
2022-11-05T04:57:05.719Z,11.68
2022-11-05T05:02:04.812Z,11.30
2022-11-05T05:07:03.490Z,11.88
2022-11-05T05:12:02.632Z,9.70
2022-11-05T05:17:01.572Z,8.90
2022-11-05T05:22:00.271Z,8.50
2022-11-05T05:26:59.137Z,8.63
2022-11-05T05:31:58.090Z,8.70
2022-11-05T05:36:56.824Z,9.98
2022-11-05T05:41:55.723Z,10.63
2022-11-05T05:46:55.574Z,10.32
2022-11-05T05:51:54.350Z,9.95
2022-11-05T05:56:53.604Z,10.80
2022-11-05T06:01:52.659Z,11.25
2022-11-05T06:06:51.607Z,11.38
2022-11-05T06:11:50.290Z,10.23
2022-11-05T06:16:48.970Z,11.25
2022-11-05T06:21:47.660Z,10.43
2022-11-05T06:26:46.282Z,11.18
2022-11-05T06:31:45.000Z,11.20
2022-11-05T06:36:43.757Z,9.95
2022-11-05T06:42:11.792Z,9.98
2022-11-05T06:47:02.412Z,9.57
2022-11-05T06:52:01.221Z,9.98
2022-11-05T06:57:00.020Z,10.32
2022-11-05T07:01:59.139Z,9.43
2022-11-05T07:07:00.836Z,10.70
2022-11-05T07:11:59.581Z,9.98
2022-11-05T07:16:58.345Z,10.68
2022-11-05T07:21:56.998Z,10.30
2022-11-05T07:26:55.646Z,11.85
2022-11-05T07:31:54.328Z,11.57
2022-11-05T07:36:53.002Z,10.15
2022-11-05T07:41:53.037Z,11.88
2022-11-05T07:46:51.708Z,12.65
2022-11-05T07:51:50.455Z,12.20
2022-11-05T07:56:49.093Z,11.65
2022-11-05T08:01:47.983Z,10.82
2022-11-05T08:06:46.827Z,11.32
2022-11-05T08:11:45.826Z,10.85
2022-11-05T08:16:44.439Z,11.35
2022-11-05T08:21:43.289Z,9.77
2022-11-05T08:26:41.975Z,9.82
2022-11-05T08:31:40.897Z,9.85
2022-11-05T08:36:46.362Z,10.63
2022-11-05T08:41:46.185Z,9.77
2022-11-05T08:46:44.853Z,7.78
2022-11-05T08:51:44.427Z,9.77
2022-11-05T08:56:46.095Z,9.38
2022-11-05T09:01:44.987Z,8.25
2022-11-05T09:06:44.036Z,8.43
2022-11-05T09:12:10.574Z,8.82
2022-11-05T09:17:01.449Z,7.65
2022-11-05T09:22:00.266Z,7.38
2022-11-05T09:26:59.016Z,7.35
2022-11-05T09:31:58.848Z,7.10
2022-11-05T09:36:57.979Z,7.35
2022-11-05T09:42:02.736Z,6.88
2022-11-05T09:47:07.004Z,6.88
2022-11-05T09:52:12.445Z,7.53
2022-11-05T09:57:17.844Z,6.80
2022-11-05T10:02:34.463Z,6.22
2022-11-05T10:07:42.413Z,5.93
2022-11-05T10:12:50.771Z,5.40
2022-11-05T10:17:56.394Z,5.63
2022-11-05T10:22:58.854Z,5.45
2022-11-05T10:27:59.466Z,4.35
2022-11-05T10:33:01.912Z,4.50
2022-11-05T10:38:02.011Z,4.68
2022-11-05T10:43:16.687Z,5.25
2022-11-05T10:48:26.103Z,5.82
2022-11-05T10:53:30.096Z,3.92
2022-11-05T10:58:35.324Z,3.63
2022-11-05T11:03:34.164Z,3.92
2022-11-05T11:08:35.655Z,3.70
2022-11-05T11:13:51.226Z,3.28
2022-11-05T11:19:01.095Z,3.33
2022-11-05T11:24:03.022Z,2.75
2022-11-05T11:29:05.984Z,2.75
2022-11-05T11:34:07.929Z,2.30
2022-11-05T11:39:07.703Z,2.55
2022-11-05T11:44:13.138Z,2.28
2022-11-05T11:49:50.292Z,2.83
2022-11-05T11:54:50.644Z,2.60
2022-11-05T12:05:14.779Z,1.77
2022-11-05T12:10:23.588Z,1.83
2022-11-05T12:15:27.742Z,1.80
2022-11-05T12:20:48.136Z,1.90
2022-11-05T12:26:15.149Z,2.45
2022-11-05T12:31:37.855Z,2.38
2022-11-05T12:37:07.595Z,2.75
2022-11-05T12:42:31.305Z,2.22
2022-11-05T12:48:13.722Z,2.60
2022-11-05T12:53:34.094Z,2.33
2022-11-05T12:58:35.767Z,1.60
2022-11-05T13:03:42.350Z,1.20
2022-11-05T13:09:01.051Z,1.50
2022-11-05T13:14:14.558Z,1.45
2022-11-05T13:19:23.340Z,3.00
2022-11-05T13:24:32.983Z,1.10
2022-11-05T13:29:38.297Z,1.63
2022-11-05T13:34:37.862Z,1.38
2022-11-05T13:39:50.765Z,1.58
2022-11-05T13:45:27.139Z,1.75
2022-11-05T13:50:44.299Z,1.73
2022-11-05T13:56:09.728Z,1.75
2022-11-05T14:01:33.698Z,1.10
2022-11-05T14:06:36.142Z,1.33
2022-11-05T14:11:42.803Z,1.77
2022-11-05T14:17:09.504Z,1.90
2022-11-05T14:22:33.446Z,1.90
2022-11-05T14:27:42.694Z,1.10
2022-11-05T14:32:50.111Z,1.38
2022-11-05T14:37:56.910Z,1.30
2022-11-05T14:42:59.066Z,1.40
2022-11-05T14:48:03.571Z,1.45
2022-11-05T14:53:10.860Z,1.63
2022-11-05T14:58:27.645Z,1.80
2022-11-05T15:03:59.321Z,2.03
2022-11-05T15:09:17.389Z,1.83
2022-11-05T15:14:34.603Z,3.50
2022-11-05T15:19:37.032Z,1.55
2022-11-05T15:24:37.485Z,2.38
2022-11-05T15:29:36.727Z,3.90
2022-11-05T15:34:35.885Z,2.15
2022-11-05T15:39:49.318Z,1.75
2022-11-05T15:44:58.923Z,1.30
2022-11-05T15:50:09.958Z,1.98
2022-11-05T15:55:12.137Z,2.28
2022-11-05T16:00:21.065Z,1.98
2022-11-05T16:05:21.255Z,2.40
2022-11-05T16:10:26.684Z,2.65
2022-11-05T16:15:29.511Z,2.53
2022-11-05T16:20:34.570Z,2.38
2022-11-05T16:25:39.385Z,3.50
2022-11-05T16:30:38.097Z,3.80
2022-11-05T16:35:46.007Z,3.22
2022-11-05T16:40:44.917Z,4.22
2022-11-05T16:45:43.829Z,4.68
2022-11-05T16:50:43.241Z,4.88
2022-11-05T16:55:44.915Z,4.78
2022-11-05T17:00:43.713Z,4.78
2022-11-05T17:05:42.869Z,5.38
2022-11-05T17:10:41.630Z,5.25
2022-11-05T17:15:41.789Z,5.15
2022-11-05T17:20:44.090Z,5.18
2022-11-05T17:25:45.731Z,5.40
2022-11-05T17:30:51.689Z,5.18
2022-11-05T17:35:52.223Z,5.53
2022-11-05T17:40:51.875Z,6.18
2022-11-05T17:45:52.440Z,5.80
2022-11-05T17:50:51.374Z,5.95
2022-11-05T17:55:50.187Z,5.93
2022-11-05T18:00:48.927Z,7.97
2022-11-05T18:05:47.657Z,7.15
2022-11-05T18:10:46.362Z,6.68
2022-11-05T18:15:45.099Z,5.93
2022-11-05T18:20:43.967Z,6.45
2022-11-05T18:25:43.303Z,6.53
2022-11-05T18:30:42.575Z,5.88
2022-11-05T18:35:43.256Z,5.78
2022-11-05T18:40:42.104Z,6.05
2022-11-05T18:45:40.956Z,6.47
2022-11-05T18:50:40.047Z,7.25
2022-11-05T18:55:40.554Z,7.90
2022-11-05T19:00:40.165Z,6.80
2022-11-05T19:05:39.060Z,7.68
2022-11-05T19:10:40.721Z,7.88
2022-11-05T19:15:43.944Z,7.18
2022-11-05T19:20:42.984Z,7.93
2022-11-05T19:25:41.660Z,8.80
2022-11-05T19:30:40.588Z,11.38
2022-11-05T19:35:41.632Z,12.77
2022-11-05T19:40:40.414Z,14.20
2022-11-05T19:45:44.932Z,13.35
2022-11-05T19:50:44.146Z,14.82
2022-11-05T19:55:44.968Z,12.02
2022-11-05T20:00:44.097Z,12.70
2022-11-05T20:05:43.428Z,11.20
2022-11-05T20:10:42.337Z,11.70
2022-11-05T20:15:41.150Z,12.57
2022-11-05T20:20:40.029Z,11.25
2022-11-05T20:25:39.046Z,11.80
2022-11-05T20:30:39.191Z,12.60
2022-11-05T20:35:39.689Z,12.30
2022-11-05T20:40:39.355Z,9.52
2022-11-05T20:45:38.342Z,10.50
2022-11-05T20:50:44.450Z,9.75
2022-11-05T20:55:44.933Z,9.07
2022-11-05T21:00:55.384Z,8.88
2022-11-05T21:06:04.131Z,9.40
2022-11-05T21:11:03.047Z,8.13
2022-11-05T21:16:02.504Z,8.20
2022-11-05T21:21:12.216Z,8.40
2022-11-05T21:26:13.398Z,7.15
2022-11-05T21:31:12.189Z,7.70
2022-11-05T21:36:12.933Z,6.75
2022-11-05T21:41:12.739Z,6.97
2022-11-05T21:46:13.481Z,7.55
2022-11-05T21:51:30.937Z,8.25
2022-11-05T21:56:48.441Z,7.40
2022-11-05T22:01:47.327Z,8.35
2022-11-05T22:06:46.426Z,7.43
2022-11-05T22:11:45.103Z,7.93
2022-11-05T22:16:43.843Z,8.07
2022-11-05T22:21:42.873Z,8.80
2022-11-05T22:26:43.063Z,7.85
2022-11-05T22:31:41.940Z,8.20
2022-11-05T22:36:40.864Z,6.95
2022-11-05T22:41:40.167Z,7.53
2022-11-05T22:46:38.970Z,6.13
2022-11-05T22:51:38.738Z,6.18
2022-11-05T22:56:40.782Z,6.35
2022-11-05T23:01:40.867Z,6.97
2022-11-05T23:06:58.362Z,7.90
2022-11-05T23:12:00.352Z,7.70
2022-11-05T23:17:18.030Z,6.13
2022-11-05T23:22:38.618Z,6.20
2022-11-05T23:27:39.733Z,6.57
2022-11-05T23:32:38.565Z,6.78
2022-11-05T23:37:56.234Z,6.72
2022-11-05T23:43:14.667Z,6.35
2022-11-05T23:48:36.438Z,4.97
2022-11-05T23:53:37.393Z,5.03
2022-11-05T23:58:37.509Z,6.05
